Time;durP1;ratioP1;P1;durP2;ratioP2;P2;SDS_P1;SDS_P2;PMS_P1;PMS_P2;Temp;Humidity;BMP_temperature;BMP_pressure;BME280_temperature;BME280_humidity;BME280_pressure;Samples;Min_cycle;Max_cycle;Signal;HPM_P1;HPM_P2
2022/09/24 00:00:19;;;;;;;;;;;;;;;12.57;96.25;101253.41;5040386;28;19935;-59
2022/09/24 00:02:45;;;;;;;;;;;;;;;12.56;96.04;101249.09;5043050;28;19917;-59
2022/09/24 00:05:10;;;;;;;;;;;;;;;12.54;96.02;101251.09;5042773;28;19944;-59
2022/09/24 00:07:35;;;;;;;;;;;;;;;12.52;96.10;101244.28;5047520;28;19920;-59
2022/09/24 00:10:01;;;;;;;;;;;;;;;12.51;96.03;101248.78;5048601;28;19917;-59
2022/09/24 00:12:27;;;;;;;;;;;;;;;12.51;95.78;101245.28;5050823;28;20054;-59
2022/09/24 00:14:52;;;;;;;;;;;;;;;12.52;95.65;101241.63;5045513;28;20293;-62
2022/09/24 00:17:17;;;;;;;;;;;;;;;12.51;95.72;101240.78;5050547;28;19924;-59
2022/09/24 00:19:43;;;;;;;;;;;;;;;12.49;95.26;101236.66;5044613;28;19917;-58
2022/09/24 00:22:08;;;;;;;;;;;;;;;12.47;95.18;101236.00;5044211;28;20062;-59
2022/09/24 00:27:17;;;;;;;;;;;;;;;12.45;95.24;101230.00;5045204;28;19989;-59
2022/09/24 00:29:43;;;;;;;;;;;;;;;12.44;95.30;101228.34;5046792;28;20721;-57
2022/09/24 00:32:09;;;;;;;;;;;;;;;12.43;95.39;101229.31;5046837;28;19987;-59
2022/09/24 00:34:34;;;;;;;;;;;;;;;12.41;95.18;101224.16;5049979;28;19913;-59
2022/09/24 00:37:00;;;;;;;;;;;;;;;12.39;95.29;101231.50;5048465;28;19924;-60
2022/09/24 00:39:25;;;;;;;;;;;;;;;12.39;95.64;101228.84;5047303;28;19932;-60
2022/09/24 00:41:50;;;;;;;;;;;;;;;12.39;95.28;101226.19;5049055;28;19920;-59
2022/09/24 00:44:34;;;;;;;;;;;;;;;12.39;95.37;101220.84;5044871;28;19931;-59
2022/09/24 00:46:59;;;;;;;;;;;;;;;12.39;95.19;101220.84;5044637;28;19972;-59
2022/09/24 00:49:24;;;;;;;;;;;;;;;12.39;95.04;101220.84;5048857;28;20635;-59
2022/09/24 00:51:51;;;;;;;;;;;;;;;12.39;95.40;101212.84;5046676;28;20007;-59
2022/09/24 00:54:21;;;;;;;;;;;;;;;12.39;94.92;101220.84;5043072;28;19924;-59
2022/09/24 00:56:47;;;;;;;;;;;;;;;12.41;94.79;101219.66;5044078;28;19946;-59
2022/09/24 00:59:16;;;;;;;;;;;;;;;12.44;94.81;101210.53;5043609;28;19925;-59
2022/09/24 01:01:41;;;;;;;;;;;;;;;12.49;94.72;101207.34;5045211;28;19951;-60
2022/09/24 01:04:07;;;;;;;;;;;;;;;12.50;94.34;101209.84;5048071;28;20395;-58
2022/09/24 01:06:32;;;;;;;;;;;;;;;12.51;94.35;101208.81;5041840;28;20388;-59
2022/09/24 01:08:58;;;;;;;;;;;;;;;12.55;94.30;101201.31;5046586;28;20004;-59
2022/09/24 01:11:26;;;;;;;;;;;;;;;12.56;93.97;101206.47;5047127;28;19916;-60
2022/09/24 01:13:54;;;;;;;;;;;;;;;12.58;93.92;101199.13;5047885;28;20002;-59
2022/09/24 01:16:28;;;;;;;;;;;;;;;12.59;93.78;101195.44;5050710;28;20390;-59
2022/09/24 01:19:03;;;;;;;;;;;;;;;12.59;93.56;101195.44;5038989;28;19917;-60
2022/09/24 01:21:37;;;;;;;;;;;;;;;12.58;93.79;101190.31;5039897;28;20003;-60
2022/09/24 01:24:03;;;;;;;;;;;;;;;12.56;93.73;101190.47;5044246;28;19982;-59
2022/09/24 01:26:38;;;;;;;;;;;;;;;12.54;93.60;101192.50;5045383;28;19920;-59
2022/09/24 01:29:20;;;;;;;;;;;;;;;12.54;93.65;101186.34;5045418;28;20027;-59
2022/09/24 01:31:49;;;;;;;;;;;;;;;12.51;93.65;101176.84;5043014;28;20311;-59
2022/09/24 01:34:18;;;;;;;;;;;;;;;12.50;93.71;101180.53;5046249;28;20559;-59
2022/09/24 01:36:44;;;;;;;;;;;;;;;12.48;93.75;101177.22;5044434;28;19935;-60
2022/09/24 01:39:09;;;;;;;;;;;;;;;12.47;94.12;101170.22;5039665;28;19924;-60
2022/09/24 01:41:37;;;;;;;;;;;;;;;12.47;93.73;101174.72;5043485;28;19920;-60
2022/09/24 01:44:06;;;;;;;;;;;;;;;12.46;93.73;101171.22;5045323;28;19920;-59
2022/09/24 01:46:31;;;;;;;;;;;;;;;12.46;93.73;101168.56;5046058;28;19932;-59
2022/09/24 01:48:57;;;;;;;;;;;;;;;12.46;93.96;101168.56;5045540;28;19924;-60
2022/09/24 01:51:29;;;;;;;;;;;;;;;12.48;94.13;101160.41;5042857;28;20417;-58
2022/09/24 01:53:59;;;;;;;;;;;;;;;12.45;94.04;101166.91;5046110;28;19916;-59
2022/09/24 01:56:27;;;;;;;;;;;;;;;12.45;94.12;101164.25;5042574;28;19932;-59
2022/09/24 01:58:59;;;;;;;;;;;;;;;12.45;94.36;101158.09;5043781;28;19917;-59
2022/09/24 02:01:28;;;;;;;;;;;;;;;12.46;94.10;101152.59;5040828;28;19921;-58
2022/09/24 02:03:59;;;;;;;;;;;;;;;12.46;94.38;101154.41;5044989;28;19924;-59
2022/09/24 02:06:37;;;;;;;;;;;;;;;12.46;94.06;101152.59;5044441;28;19929;-58
2022/09/24 02:09:02;;;;;;;;;;;;;;;12.49;94.15;101156.72;5047162;28;19920;-59
2022/09/24 02:11:29;;;;;;;;;;;;;;;12.48;93.96;101150.56;5043645;28;19939;-59
2022/09/24 02:14:07;;;;;;;;;;;;;;;12.48;93.91;101147.91;5041358;28;19952;-60
2022/09/24 02:16:34;;;;;;;;;;;;;;;12.50;93.85;101151.22;5042415;28;20015;-59
2022/09/24 02:19:02;;;;;;;;;;;;;;;12.50;94.06;101155.72;5041067;28;19921;-60
2022/09/24 02:21:30;;;;;;;;;;;;;;;12.49;93.84;101151.41;5045686;28;19971;-59
2022/09/24 02:23:58;;;;;;;;;;;;;;;12.49;94.13;101146.06;5044664;28;19939;-59
2022/09/24 02:26:23;;;;;;;;;;;;;;;12.50;93.75;101148.56;5039689;28;19932;-59
2022/09/24 02:28:48;;;;;;;;;;;;;;;12.52;93.56;101140.38;5041170;28;19920;-60
2022/09/24 02:31:17;;;;;;;;;;;;;;;12.53;93.52;101150.03;5040685;28;19978;-60
2022/09/24 02:36:28;;;;;;;;;;;;;;;12.55;93.43;101146.19;5045938;28;19940;-59
2022/09/24 02:38:53;;;;;;;;;;;;;;;12.56;93.25;101137.19;5044102;28;20440;-60
2022/09/24 02:41:21;;;;;;;;;;;;;;;12.59;93.18;101131.50;5043501;28;19917;-59
2022/09/24 02:43:46;;;;;;;;;;;;;;;12.59;93.14;101136.84;5047133;28;19924;-59
2022/09/24 02:46:11;;;;;;;;;;;;;;;12.59;93.17;101126.19;5041535;28;19921;-60
2022/09/24 02:48:36;;;;;;;;;;;;;;;12.59;93.17;101120.03;5038399;28;19913;-59
2022/09/24 02:51:03;;;;;;;;;;;;;;;12.58;93.28;101118.38;5048225;28;19928;-60
2022/09/24 02:53:28;;;;;;;;;;;;;;;12.55;93.41;101126.72;5048633;28;19960;-60
2022/09/24 02:55:53;;;;;;;;;;;;;;;12.51;93.35;101123.59;5043089;28;19952;-59
2022/09/24 02:58:19;;;;;;;;;;;;;;;12.48;93.53;101121.28;5049728;28;19924;-59
2022/09/24 03:00:44;;;;;;;;;;;;;;;12.45;93.51;101126.94;5048270;28;19921;-60
2022/09/24 03:03:10;;;;;;;;;;;;;;;12.43;93.54;101126.28;5040584;28;19924;-59
2022/09/24 03:05:35;;;;;;;;;;;;;;;12.43;93.91;101128.09;5046069;28;19948;-59
2022/09/24 03:08:00;;;;;;;;;;;;;;;12.41;93.90;101122.97;5042413;28;19931;-59
2022/09/24 03:10:25;;;;;;;;;;;;;;;12.40;93.98;101123.97;5048898;28;19920;-59
2022/09/24 03:12:50;;;;;;;;;;;;;;;12.41;93.97;101117.63;5043947;28;19927;-59
2022/09/24 03:15:16;;;;;;;;;;;;;;;12.41;94.44;101112.31;5040793;28;19940;-59
2022/09/24 03:17:41;;;;;;;;;;;;;;;12.42;94.34;101119.28;5044489;28;19922;-59
2022/09/24 03:20:06;;;;;;;;;;;;;;;12.43;94.39;101109.47;5042910;28;20021;-59
2022/09/24 03:22:31;;;;;;;;;;;;;;;12.43;94.40;101114.78;5041966;28;19925;-60
2022/09/24 03:24:57;;;;;;;;;;;;;;;12.43;94.33;101112.13;5043731;28;19927;-60
2022/09/24 03:27:22;;;;;;;;;;;;;;;12.44;94.27;101114.63;5042799;28;20540;-59
2022/09/24 03:32:32;;;;;;;;;;;;;;;12.45;94.55;101108.31;5043256;28;19924;-60
2022/09/24 03:34:57;;;;;;;;;;;;;;;12.45;94.56;101102.97;5043151;28;20058;-60
2022/09/24 03:37:23;;;;;;;;;;;;;;;12.45;94.70;101116.31;5044489;28;19999;-59
2022/09/24 03:39:48;;;;;;;;;;;;;;;12.45;94.54;101110.16;5049231;28;19928;-59
2022/09/24 03:42:13;;;;;;;;;;;;;;;12.43;94.61;101109.47;5046953;28;19921;-59
2022/09/24 03:44:38;;;;;;;;;;;;;;;12.41;94.76;101106.97;5047065;28;19932;-58
2022/09/24 03:47:03;;;;;;;;;;;;;;;12.40;95.02;101102.66;5044235;28;19921;-59
2022/09/24 03:49:28;;;;;;;;;;;;;;;12.38;94.91;101096.69;5049364;28;19924;-59
2022/09/24 03:51:54;;;;;;;;;;;;;;;12.37;95.30;101097.69;5048445;28;19917;-59
2022/09/24 03:54:19;;;;;;;;;;;;;;;12.37;95.31;101101.16;5047472;28;19935;-59
2022/09/24 03:56:44;;;;;;;;;;;;;;;12.38;94.90;101088.69;5048576;28;19916;-59
2022/09/24 03:59:09;;;;;;;;;;;;;;;12.38;95.19;101091.34;5046603;28;19924;-58
2022/09/24 04:01:36;;;;;;;;;;;;;;;12.38;95.37;101088.69;5043639;28;19948;-59
2022/09/24 04:04:02;;;;;;;;;;;;;;;12.39;94.99;101088.50;5045682;28;20659;-60
2022/09/24 04:06:27;;;;;;;;;;;;;;;12.39;95.19;101088.50;5048792;28;20012;-59
2022/09/24 04:08:52;;;;;;;;;;;;;;;12.38;95.31;101086.03;5046608;28;19917;-59
2022/09/24 04:11:17;;;;;;;;;;;;;;;12.40;95.32;101094.66;5041972;28;19920;-59
2022/09/24 04:13:42;;;;;;;;;;;;;;;12.38;95.58;101084.19;5050093;28;19923;-59
2022/09/24 04:16:08;;;;;;;;;;;;;;;12.38;95.58;101084.19;5046837;28;19940;-59
2022/09/24 04:18:33;;;;;;;;;;;;;;;12.38;95.53;101084.19;5047792;28;19924;-60
2022/09/24 04:20:59;;;;;;;;;;;;;;;12.38;95.95;101086.03;5044177;28;19917;-60
2022/09/24 04:23:25;;;;;;;;;;;;;;;12.37;95.61;101081.69;5045174;28;19978;-60
2022/09/24 04:25:50;;;;;;;;;;;;;;;12.36;96.05;101080.03;5047492;28;19925;-59
2022/09/24 04:28:15;;;;;;;;;;;;;;;12.34;95.93;101079.41;5044601;28;20691;-59
2022/09/24 04:30:40;;;;;;;;;;;;;;;12.32;95.94;101079.56;5047903;28;19924;-59
2022/09/24 04:33:06;;;;;;;;;;;;;;;12.31;96.45;101079.75;5044757;28;20015;-59
2022/09/24 04:35:31;;;;;;;;;;;;;;;12.30;96.13;101084.25;5046578;28;19925;-59
2022/09/24 04:37:58;;;;;;;;;;;;;;;12.29;96.24;101071.94;5043473;28;19974;-60
2022/09/24 04:40:23;;;;;;;;;;;;;;;12.27;96.49;101073.13;5043144;28;19921;-59
2022/09/24 04:42:48;;;;;;;;;;;;;;;12.27;96.52;101073.94;5045387;28;19921;-59
2022/09/24 04:45:16;;;;;;;;;;;;;;;12.26;96.58;101072.28;5045550;28;19920;-59
2022/09/24 04:47:41;;;;;;;;;;;;;;;12.26;96.75;101066.97;5047546;28;19940;-59
2022/09/24 04:50:08;;;;;;;;;;;;;;;12.26;96.55;101072.28;5043012;28;19970;-59
2022/09/24 04:52:33;;;;;;;;;;;;;;;12.27;96.42;101071.28;5042599;28;19923;-60
2022/09/24 04:54:58;;;;;;;;;;;;;;;12.25;96.53;101065.31;5049020;28;19913;-57
2022/09/24 04:57:24;;;;;;;;;;;;;;;12.27;96.67;101062.47;5043890;28;19925;-57
2022/09/24 04:59:49;;;;;;;;;;;;;;;12.27;96.54;101067.78;5044455;28;20012;-57
2022/09/24 05:02:15;;;;;;;;;;;;;;;12.27;96.44;101070.47;5041731;28;20523;-57
2022/09/24 05:04:42;;;;;;;;;;;;;;;12.26;96.33;101068.81;5049326;28;19939;-59
2022/09/24 05:07:07;;;;;;;;;;;;;;;12.28;96.18;101066.78;5048614;28;19973;-58
2022/09/24 05:09:33;;;;;;;;;;;;;;;12.29;96.34;101069.28;5043878;28;19921;-59
2022/09/24 05:11:58;;;;;;;;;;;;;;;12.30;96.27;101072.75;5040720;28;20008;-57
2022/09/24 05:14:24;;;;;;;;;;;;;;;12.30;96.16;101067.44;5048058;28;19943;-60
2022/09/24 05:16:49;;;;;;;;;;;;;;;12.31;96.22;101071.75;5049252;28;21349;-59
2022/09/24 05:19:14;;;;;;;;;;;;;;;12.32;96.41;101070.75;5051184;28;19916;-59
2022/09/24 05:21:39;;;;;;;;;;;;;;;12.30;96.45;101068.28;5047362;28;19920;-58
2022/09/24 05:24:05;;;;;;;;;;;;;;;12.30;96.67;101078.09;5053038;28;19923;-58
2022/09/24 05:29:13;;;;;;;;;;;;;;;12.29;97.20;101081.75;5050570;28;19967;-57
2022/09/24 05:31:38;;;;;;;;;;;;;;;12.28;97.24;101080.09;5041801;28;20396;-58
2022/09/24 05:34:04;;;;;;;;;;;;;;;12.28;96.87;101088.91;5041636;28;19920;-58
2022/09/24 05:36:30;;;;;;;;;;;;;;;12.28;96.96;101080.09;5046286;28;19917;-56
2022/09/24 05:38:55;;;;;;;;;;;;;;;12.27;96.99;101084.59;5045583;28;19916;-58
2022/09/24 05:41:20;;;;;;;;;;;;;;;12.27;97.39;101087.25;5045402;28;19923;-59
2022/09/24 05:43:46;;;;;;;;;;;;;;;12.27;97.46;101089.94;5044587;28;20022;-59
2022/09/24 05:46:11;;;;;;;;;;;;;;;12.26;97.20;101080.28;5046799;28;20413;-59
2022/09/24 05:48:36;;;;;;;;;;;;;;;12.26;97.17;101090.09;5047504;28;19925;-59
2022/09/24 05:51:02;;;;;;;;;;;;;;;12.27;97.32;101083.78;5050953;28;19920;-59
2022/09/24 05:53:27;;;;;;;;;;;;;;;12.29;97.23;101092.41;5045718;28;19917;-59
2022/09/24 05:55:52;;;;;;;;;;;;;;;12.29;97.07;101092.41;5045415;28;19917;-59
2022/09/24 05:58:17;;;;;;;;;;;;;;;12.28;97.22;101096.09;5044321;28;20376;-59
2022/09/24 06:00:44;;;;;;;;;;;;;;;12.27;97.34;101094.44;5045319;28;19923;-59
2022/09/24 06:03:13;;;;;;;;;;;;;;;12.28;97.50;101101.41;5038176;28;19917;-59
2022/09/24 06:05:42;;;;;;;;;;;;;;;12.28;97.82;101104.06;5047635;28;19917;-59
2022/09/24 06:08:07;;;;;;;;;;;;;;;12.28;97.53;101101.41;5045713;28;19916;-60
2022/09/24 06:10:33;;;;;;;;;;;;;;;12.28;97.78;101104.06;5045782;28;19975;-58
2022/09/24 06:12:58;;;;;;;;;;;;;;;12.29;97.42;101097.75;5047954;28;19963;-59
2022/09/24 06:15:25;;;;;;;;;;;;;;;12.30;97.39;101104.72;5039146;28;19917;-59
2022/09/24 06:17:51;;;;;;;;;;;;;;;12.30;97.34;101105.56;5042934;28;19960;-59
2022/09/24 06:20:17;;;;;;;;;;;;;;;12.30;97.32;101102.06;5043713;28;19924;-58
2022/09/24 06:22:42;;;;;;;;;;;;;;;12.30;97.23;101110.88;5043531;28;19921;-59
2022/09/24 06:25:07;;;;;;;;;;;;;;;12.32;97.16;101110.69;5044074;28;19924;-59
2022/09/24 06:27:32;;;;;;;;;;;;;;;12.32;97.15;101111.53;5044623;28;19921;-59
2022/09/24 06:29:57;;;;;;;;;;;;;;;12.32;97.34;101102.72;5040359;28;19924;-59
2022/09/24 06:32:23;;;;;;;;;;;;;;;12.31;97.21;101109.03;5046529;28;19917;-58
2022/09/24 06:34:48;;;;;;;;;;;;;;;12.33;97.40;101109.69;5040766;28;19955;-57
2022/09/24 06:37:13;;;;;;;;;;;;;;;12.32;97.47;101111.53;5047366;28;19913;-59
2022/09/24 06:39:39;;;;;;;;;;;;;;;12.32;97.58;101114.19;5046950;28;19923;-58
2022/09/24 06:42:04;;;;;;;;;;;;;;;12.31;97.92;101112.53;5045544;28;19927;-58
2022/09/24 06:44:29;;;;;;;;;;;;;;;12.31;97.93;101117.84;5043785;28;19917;-59
2022/09/24 06:46:56;;;;;;;;;;;;;;;12.32;97.64;101121.34;5046116;28;19964;-59
2022/09/24 06:49:21;;;;;;;;;;;;;;;12.33;97.81;101125.66;5046022;28;19954;-58
2022/09/24 06:51:46;;;;;;;;;;;;;;;12.33;97.64;101129.16;5037371;28;19978;-58
2022/09/24 06:54:11;;;;;;;;;;;;;;;12.34;97.51;101130.00;5042672;28;19924;-59
2022/09/24 06:56:36;;;;;;;;;;;;;;;12.34;97.37;101132.66;5042425;28;19921;-58
2022/09/24 06:59:02;;;;;;;;;;;;;;;12.34;97.85;101120.16;5042717;28;20048;-59
2022/09/24 07:01:27;;;;;;;;;;;;;;;12.32;97.90;101124.84;5046486;28;19913;-59
2022/09/24 07:03:52;;;;;;;;;;;;;;;12.34;97.85;101130.81;5045813;28;19920;-58
2022/09/24 07:06:17;;;;;;;;;;;;;;;12.35;97.98;101129.81;5040590;28;19987;-57
2022/09/24 07:08:42;;;;;;;;;;;;;;;12.36;97.65;101131.47;5043838;28;19924;-59
2022/09/24 07:11:07;;;;;;;;;;;;;;;12.37;97.59;101132.31;5043759;28;19960;-58
2022/09/24 07:13:33;;;;;;;;;;;;;;;12.39;98.03;101132.97;5042241;28;19917;-57
2022/09/24 07:16:00;;;;;;;;;;;;;;;12.38;97.97;101137.44;5048722;28;20338;-59
2022/09/24 07:18:25;;;;;;;;;;;;;;;12.41;97.54;101139.75;5048084;28;19920;-59
2022/09/24 07:20:51;;;;;;;;;;;;;;;12.45;97.66;101142.94;5056584;28;19939;-58
2022/09/24 07:23:17;;;;;;;;;;;;;;;12.49;97.65;101140.75;5053225;28;19927;-59
2022/09/24 07:25:42;;;;;;;;;;;;;;;12.49;97.64;101140.75;5053432;28;20002;-58
2022/09/24 07:28:09;;;;;;;;;;;;;;;12.46;97.85;101141.94;5047712;28;19970;-59
2022/09/24 07:30:34;;;;;;;;;;;;;;;12.46;97.88;101138.44;5045318;28;19913;-59
2022/09/24 07:33:00;;;;;;;;;;;;;;;12.48;98.03;101147.06;5049789;28;19927;-59
2022/09/24 07:35:28;;;;;;;;;;;;;;;12.48;98.06;101145.25;5050030;28;19924;-59
2022/09/24 07:38:00;;;;;;;;;;;;;;;12.49;97.89;101152.22;5062433;28;20397;-59
2022/09/24 07:40:26;;;;;;;;;;;;;;;12.48;98.02;101155.91;5048752;28;19920;-59
2022/09/24 07:42:53;;;;;;;;;;;;;;;12.48;98.20;101149.75;5056910;28;19919;-59
2022/09/24 07:45:18;;;;;;;;;;;;;;;12.51;98.07;101160.03;5052341;28;19924;-60
2022/09/24 07:47:43;;;;;;;;;;;;;;;12.52;98.04;101161.69;5054685;28;19916;-59
2022/09/24 07:50:08;;;;;;;;;;;;;;;12.51;98.09;101155.53;5051214;28;20087;-59
2022/09/24 07:52:34;;;;;;;;;;;;;;;12.53;98.26;101166.84;5044270;28;20569;-59
2022/09/24 07:54:59;;;;;;;;;;;;;;;12.55;97.94;101162.19;5052884;28;19951;-59
2022/09/24 07:57:26;;;;;;;;;;;;;;;12.56;97.93;101169.16;5049190;28;19921;-58
2022/09/24 07:59:51;;;;;;;;;;;;;;;12.56;97.93;101163.84;5052082;28;19917;-59
2022/09/24 08:02:17;;;;;;;;;;;;;;;12.57;97.92;101165.50;5053156;28;20019;-59
2022/09/24 08:04:43;;;;;;;;;;;;;;;12.55;98.11;101167.50;5053710;28;19916;-58
2022/09/24 08:07:08;;;;;;;;;;;;;;;12.58;98.20;101166.31;5051452;28;19947;-57
2022/09/24 08:09:34;;;;;;;;;;;;;;;12.63;97.80;101174.63;5050952;28;20381;-58
2022/09/24 08:11:59;;;;;;;;;;;;;;;12.67;97.74;101170.59;5052590;28;20005;-59
2022/09/24 08:14:24;;;;;;;;;;;;;;;12.67;97.77;101173.25;5047451;28;19925;-59
2022/09/24 08:16:49;;;;;;;;;;;;;;;12.66;97.86;101176.94;5050124;28;19917;-59
2022/09/24 08:19:15;;;;;;;;;;;;;;;12.64;97.92;101170.94;5043256;28;19917;-58
2022/09/24 08:21:41;;;;;;;;;;;;;;;12.67;97.83;101170.59;5052884;28;19919;-59
2022/09/24 08:24:06;;;;;;;;;;;;;;;12.69;98.06;101174.72;5039654;28;19920;-58
2022/09/24 08:26:31;;;;;;;;;;;;;;;12.72;98.07;101181.53;5043424;28;20384;-58
2022/09/24 08:28:58;;;;;;;;;;;;;;;12.74;97.73;101181.41;5040615;28;21220;-59
2022/09/24 08:31:23;;;;;;;;;;;;;;;12.75;97.95;101180.38;5045307;28;19920;-59
2022/09/24 08:33:49;;;;;;;;;;;;;;;12.79;97.87;101187.03;5048529;28;20289;-58
2022/09/24 08:36:15;;;;;;;;;;;;;;;12.80;97.74;101189.50;5039453;28;20284;-58
2022/09/24 08:38:40;;;;;;;;;;;;;;;12.80;97.55;101180.69;5047157;28;20399;-58
2022/09/24 08:41:15;;;;;;;;;;;;;;;12.82;97.65;101190.16;5049697;28;19917;-59
2022/09/24 08:43:59;;;;;;;;;;;;;;;12.87;97.17;101194.97;5050884;28;19913;-59
2022/09/24 08:49:44;;;;;;;;;;;;;;;12.97;97.31;101198.22;5048276;28;20396;-59
2022/09/24 08:52:25;;;;;;;;;;;;;;;12.95;97.00;101194.91;5044908;28;19916;-58
2022/09/24 08:54:52;;;;;;;;;;;;;;;12.95;97.07;101200.22;5042946;28;20004;-58
2022/09/24 08:57:18;;;;;;;;;;;;;;;12.96;96.87;101201.88;5046753;28;19925;-58
2022/09/24 08:59:47;;;;;;;;;;;;;;;12.95;96.72;101200.22;5048733;28;19920;-59
2022/09/24 09:02:15;;;;;;;;;;;;;;;12.98;96.85;101202.53;5048062;28;19917;-59
2022/09/24 09:04:51;;;;;;;;;;;;;;;12.98;96.65;101207.88;5044619;28;19956;-59
2022/09/24 09:07:19;;;;;;;;;;;;;;;12.98;96.89;101207.88;5050693;28;19917;-59
2022/09/24 09:09:44;;;;;;;;;;;;;;;12.97;96.44;101209.69;5048902;28;19956;-59
2022/09/24 09:12:12;;;;;;;;;;;;;;;13.00;96.68;101209.34;5050009;28;20007;-57
2022/09/24 09:14:41;;;;;;;;;;;;;;;13.03;96.29;101205.53;5048138;28;19913;-57
2022/09/24 09:17:25;;;;;;;;;;;;;;;13.04;96.52;101209.84;5042961;28;20422;-57
2022/09/24 09:19:58;;;;;;;;;;;;;;;13.05;96.23;101211.50;5041114;28;20007;-59
2022/09/24 09:22:28;;;;;;;;;;;;;;;13.07;96.47;101219.31;5039923;28;20776;-59
2022/09/24 09:24:56;;;;;;;;;;;;;;;13.10;96.15;101214.47;5041907;28;20393;-59
2022/09/24 09:27:21;;;;;;;;;;;;;;;13.13;95.98;101221.28;5046400;28;20015;-58
2022/09/24 09:30:06;;;;;;;;;;;;;;;13.13;95.77;101221.28;5044773;28;20620;-59
2022/09/24 09:32:34;;;;;;;;;;;;;;;13.16;95.64;101224.41;5042146;28;19947;-59
2022/09/24 09:35:05;;;;;;;;;;;;;;;13.17;95.58;101226.09;5044017;28;19952;-59
2022/09/24 09:37:53;;;;;;;;;;;;;;;13.23;95.25;101222.72;5043466;28;19916;-59
2022/09/24 09:40:29;;;;;;;;;;;;;;;13.26;95.35;101214.34;5046455;28;19928;-59
2022/09/24 09:43:07;;;;;;;;;;;;;;;13.27;95.52;101221.34;5048445;28;19992;-59
2022/09/24 09:45:38;;;;;;;;;;;;;;;13.25;95.18;101217.19;5043809;28;19932;-59
2022/09/24 09:48:03;;;;;;;;;;;;;;;13.27;94.98;101220.53;5040317;28;19931;-59
2022/09/24 09:50:37;;;;;;;;;;;;;;;13.31;94.95;101224.50;5046087;28;19921;-59
2022/09/24 09:53:04;;;;;;;;;;;;;;;13.31;94.68;101227.19;5042047;28;19917;-59
2022/09/24 09:55:31;;;;;;;;;;;;;;;13.31;94.70;101222.69;5043867;28;20377;-59
2022/09/24 09:58:15;;;;;;;;;;;;;;;13.33;94.55;101225.16;5041218;28;19923;-59
2022/09/24 10:00:40;;;;;;;;;;;;;;;13.36;94.57;101230.13;5045962;28;19974;-58
2022/09/24 10:03:19;;;;;;;;;;;;;;;13.39;94.76;101231.63;5045174;28;19921;-59
2022/09/24 10:05:50;;;;;;;;;;;;;;;13.40;94.47;101233.28;5042323;28;19917;-59
2022/09/24 10:08:19;;;;;;;;;;;;;;;13.39;94.41;101228.94;5041320;28;19917;-59
2022/09/24 10:10:54;;;;;;;;;;;;;;;13.37;93.92;101237.13;5041349;28;19963;-59
2022/09/24 10:13:19;;;;;;;;;;;;;;;13.40;93.95;101228.75;5040918;28;20681;-57
2022/09/24 10:16:04;;;;;;;;;;;;;;;13.47;94.29;101226.19;5044610;28;19916;-58
2022/09/24 10:18:45;;;;;;;;;;;;;;;13.50;94.50;101225.84;5043257;28;19924;-59
2022/09/24 10:21:12;;;;;;;;;;;;;;;13.51;94.28;101225.66;5041729;28;19929;-59
2022/09/24 10:23:39;;;;;;;;;;;;;;;13.57;94.21;101226.75;5045234;28;19925;-59
2022/09/24 10:26:05;;;;;;;;;;;;;;;13.61;94.25;101233.44;5043233;28;19923;-59
2022/09/24 10:31:17;;;;;;;;;;;;;;;13.61;93.85;101226.25;5039701;28;20015;-59
2022/09/24 10:33:44;;;;;;;;;;;;;;;13.61;93.46;101228.91;5044918;28;19983;-57
2022/09/24 10:36:14;;;;;;;;;;;;;;;13.62;93.42;101227.09;5038631;28;20733;-58
2022/09/24 10:38:39;;;;;;;;;;;;;;;13.67;93.39;101224.69;5044635;28;19939;-57
2022/09/24 10:41:14;;;;;;;;;;;;;;;13.67;92.97;101230.03;5042948;28;20380;-59
2022/09/24 10:43:48;;;;;;;;;;;;;;;13.70;93.23;101228.84;5047501;28;19955;-59
2022/09/24 10:46:20;;;;;;;;;;;;;;;13.70;92.79;101227.00;5048593;28;19963;-59
2022/09/24 10:49:00;;;;;;;;;;;;;;;13.73;92.95;101229.28;5035908;28;20396;-59
2022/09/24 10:51:38;;;;;;;;;;;;;;;13.78;93.11;101234.91;5041821;28;19983;-58
2022/09/24 10:54:21;;;;;;;;;;;;;;;13.82;93.11;101228.19;5040723;28;20392;-59
2022/09/24 10:56:50;;;;;;;;;;;;;;;13.89;92.95;101229.16;5042885;28;20403;-59
2022/09/24 10:59:15;;;;;;;;;;;;;;;13.97;93.17;101225.56;5044624;28;20287;-58
2022/09/24 11:02:07;;;;;;;;;;;;;;;14.03;92.83;101232.00;5035064;28;19939;-61
2022/09/24 11:04:50;;;;;;;;;;;;;;;14.08;92.79;101241.13;5016517;28;19921;-60
2022/09/24 11:07:35;;;;;;;;;;;;;;;14.14;92.56;101235.03;5048012;28;19960;-58
2022/09/24 11:10:04;;;;;;;;;;;;;;;14.17;92.35;101237.38;5048544;28;19923;-59
2022/09/24 11:12:29;;;;;;;;;;;;;;;14.16;91.71;101242.84;5043263;28;20299;-59
2022/09/24 11:15:07;;;;;;;;;;;;;;;14.16;91.53;101238.34;5047044;28;19916;-57
2022/09/24 11:17:33;;;;;;;;;;;;;;;14.19;91.04;101246.03;5048740;28;20015;-58
2022/09/24 11:20:01;;;;;;;;;;;;;;;14.21;91.01;101245.84;5049755;28;19924;-57
2022/09/24 11:22:42;;;;;;;;;;;;;;;14.20;90.73;101242.34;5048020;28;20283;-59
2022/09/24 11:25:25;;;;;;;;;;;;;;;14.20;91.15;101246.84;5048853;28;19920;-59
2022/09/24 11:28:15;;;;;;;;;;;;;;;14.22;91.02;101250.16;5042696;28;19928;-59
2022/09/24 11:30:56;;;;;;;;;;;;;;;14.20;90.68;101249.53;5046973;28;20745;-59
2022/09/24 11:33:32;;;;;;;;;;;;;;;14.20;90.34;101250.34;5042410;28;19916;-58
2022/09/24 11:35:57;;;;;;;;;;;;;;;14.25;90.42;101247.13;5046219;28;20609;-59
2022/09/24 11:38:26;;;;;;;;;;;;;;;14.33;90.44;101249.69;5045226;28;20423;-59
2022/09/24 11:41:12;;;;;;;;;;;;;;;14.38;90.82;101249.13;5045665;28;19924;-58
2022/09/24 11:43:46;;;;;;;;;;;;;;;14.48;90.86;101242.53;5044619;28;19912;-59
2022/09/24 11:46:17;;;;;;;;;;;;;;;14.53;90.56;101250.81;5044971;28;19920;-60
2022/09/24 11:48:52;;;;;;;;;;;;;;;14.55;90.64;101245.28;5047640;28;19992;-58
2022/09/24 11:51:17;;;;;;;;;;;;;;;14.51;89.39;101250.19;5039372;28;19925;-60
2022/09/24 11:53:45;;;;;;;;;;;;;;;14.43;88.51;101244.91;5047810;28;19913;-59
2022/09/24 11:56:25;;;;;;;;;;;;;;;14.43;88.70;101249.44;5046800;28;19916;-60
2022/09/24 11:59:10;;;;;;;;;;;;;;;14.45;89.06;101248.22;5043023;28;20447;-59
2022/09/24 12:01:37;;;;;;;;;;;;;;;14.42;88.68;101247.75;5050353;28;19920;-60
2022/09/24 12:04:09;;;;;;;;;;;;;;;14.39;88.98;101243.59;5042249;28;19928;-60
2022/09/24 12:06:36;;;;;;;;;;;;;;;14.40;89.09;101250.59;5043671;28;19916;-59
2022/09/24 12:09:08;;;;;;;;;;;;;;;14.41;89.12;101252.25;5039453;28;20290;-58
2022/09/24 12:11:44;;;;;;;;;;;;;;;14.41;89.05;101240.72;5049915;28;19964;-59
2022/09/24 12:14:15;;;;;;;;;;;;;;;14.40;88.67;101239.91;5048489;28;19921;-60
2022/09/24 12:16:43;;;;;;;;;;;;;;;14.44;89.04;101243.06;5046240;28;20376;-60
2022/09/24 12:19:43;;;;;;;;;;;;;;;14.41;88.57;101246.09;5041252;28;20485;-59
2022/09/24 12:22:09;;;;;;;;;;;;;;;14.39;88.56;101238.25;4964730;28;19933;-60
2022/09/24 12:24:57;;;;;;;;;;;;;;;14.42;88.74;101245.88;5027453;28;19916;-60
2022/09/24 12:27:36;;;;;;;;;;;;;;;14.44;88.37;101240.41;5043996;28;19932;-60
2022/09/24 12:33:21;;;;;;;;;;;;;;;14.41;88.33;101246.91;5041774;28;20304;-60
2022/09/24 12:35:47;;;;;;;;;;;;;;;14.35;87.90;101247.66;5045376;28;19917;-60
2022/09/24 12:38:16;;;;;;;;;;;;;;;14.33;87.58;101249.69;5044144;28;19948;-59
2022/09/24 12:40:44;;;;;;;;;;;;;;;14.33;87.67;101256.88;5044042;28;20498;-59
2022/09/24 12:43:24;;;;;;;;;;;;;;;14.27;87.37;101255.78;5045632;28;19942;-60
2022/09/24 12:45:53;;;;;;;;;;;;;;;14.24;87.46;101256.16;5047365;28;21970;-59
2022/09/24 12:48:19;;;;;;;;;;;;;;;14.26;87.82;101254.13;5043648;28;19928;-60
2022/09/24 12:50:54;;;;;;;;;;;;;;;14.30;87.65;101259.91;5042973;28;20337;-60
2022/09/24 12:53:23;;;;;;;;;;;;;;;14.29;87.88;101248.41;5043406;28;19921;-60
2022/09/24 12:55:49;;;;;;;;;;;;;;;14.31;88.26;101251.72;5045141;28;19947;-60
2022/09/24 12:58:29;;;;;;;;;;;;;;;14.31;88.50;101245.53;5041937;28;20407;-60
2022/09/24 13:01:10;;;;;;;;;;;;;;;14.32;88.24;101247.19;5046792;28;19921;-60